Terminal Aerodrome Forecast
Issued by NWS

Home | Current Version | Previous Version | Text Only | Print | Product List | Glossary On
Versions: 1 2 3 4 5 6 7 8 9 10 11 12 13 14 15 16 17
000
FTUS43 KPAH 311120
TAFCGI
TAF
KCGI 311120Z 3112/0112 12006KT P6SM VCSH SCT050 BKN100
      TEMPO 3113/3116 -SHRA
     FM010100 VRB02KT P6SM FEW050 SCT100=

USA.gov is the U.S. government's official web portal to all federal, state and local government web resources and services.